Adamant, Vermont
Current Conditions -  °F | °C
As of 11:10 AM on Wednesday 22 Oct 2014 (Local Time) from KMPV Reporting Station
Overcast Overcast  
Wind Chill:   Ceiling: 2100
Heat Index:   Visibility: 10mi
Dew Point:   Wind: 7mph
Humidity: 93%   Direction: 330°NNW
Pressure: 30.19"   Gusts: NA
Location:  44.33°N, 72.5°W
Report Text: KMPV 221510Z AUTO 33006KT 10SM FEW006 BKN021 OVC060 09/08 A3019 RMK AO2 T00940083
Loading
Personal Weather Stations






























Interactive Weather Map
Tropical Storm Tracking
New forecast layout! Learn more

10-Day Weather Forecast

Advertisements
Track Severe Weather on mobile